sensor_id;sensor_type;location;lat;lon;timestamp;pressure;altitude;pressure_sealevel;temperature;humidity
45793;BME280;31495;42.740;22.908;2023-05-22T00:00:04;92882.63;;;13.29;73.50
45793;BME280;31495;42.740;22.908;2023-05-22T00:01:05;92882.38;;;13.31;73.63
45793;BME280;31495;42.740;22.908;2023-05-22T00:02:05;92886.38;;;13.33;73.52
45793;BME280;31495;42.740;22.908;2023-05-22T00:03:04;92887.38;;;13.32;73.62
45793;BME280;31495;42.740;22.908;2023-05-22T00:04:03;92884.97;;;13.31;73.38
45793;BME280;31495;42.740;22.908;2023-05-22T00:05:06;92885.66;;;13.26;73.77
45793;BME280;31495;42.740;22.908;2023-05-22T00:06:05;92885.13;;;13.24;73.56
45793;BME280;31495;42.740;22.908;2023-05-22T00:07:08;92887.94;;;13.22;73.44
45793;BME280;31495;42.740;22.908;2023-05-22T00:08:07;92884.56;;;13.22;73.26
45793;BME280;31495;42.740;22.908;2023-05-22T00:09:09;92883.53;;;13.23;73.04
45793;BME280;31495;42.740;22.908;2023-05-22T00:10:09;92891.31;;;13.23;73.04
45793;BME280;31495;42.740;22.908;2023-05-22T00:11:09;92889.44;;;13.18;73.39
45793;BME280;31495;42.740;22.908;2023-05-22T00:12:08;92889.78;;;13.22;73.19
45793;BME280;31495;42.740;22.908;2023-05-22T00:13:08;92883.34;;;13.13;73.26
45793;BME280;31495;42.740;22.908;2023-05-22T00:14:07;92892.63;;;13.09;73.32
45793;BME280;31495;42.740;22.908;2023-05-22T00:15:07;92886.63;;;13.08;73.75
45793;BME280;31495;42.740;22.908;2023-05-22T00:16:06;92891.81;;;13.08;73.71
45793;BME280;31495;42.740;22.908;2023-05-22T00:17:06;92889.22;;;13.08;73.67
45793;BME280;31495;42.740;22.908;2023-05-22T00:18:05;92888.22;;;13.09;73.82
45793;BME280;31495;42.740;22.908;2023-05-22T00:19:06;92888.00;;;13.11;73.65
45793;BME280;31495;42.740;22.908;2023-05-22T00:20:11;92888.78;;;13.11;73.61
45793;BME280;31495;42.740;22.908;2023-05-22T00:21:10;92885.41;;;13.11;73.71
45793;BME280;31495;42.740;22.908;2023-05-22T00:22:09;92883.34;;;13.13;73.53
45793;BME280;31495;42.740;22.908;2023-05-22T00:23:09;92877.84;;;13.09;73.72
45793;BME280;31495;42.740;22.908;2023-05-22T00:24:08;92880.19;;;13.11;73.71
45793;BME280;31495;42.740;22.908;2023-05-22T00:25:08;92883.03;;;13.09;74.01
45793;BME280;31495;42.740;22.908;2023-05-22T00:26:07;92889.22;;;13.08;74.04
45793;BME280;31495;42.740;22.908;2023-05-22T00:27:07;92882.47;;;13.07;74.10
45793;BME280;31495;42.740;22.908;2023-05-22T00:28:06;92880.75;;;13.13;73.98
45793;BME280;31495;42.740;22.908;2023-05-22T00:29:06;92885.63;;;13.09;73.83
45793;BME280;31495;42.740;22.908;2023-05-22T00:30:05;92884.34;;;13.12;74.00
45793;BME280;31495;42.740;22.908;2023-05-22T00:31:05;92884.63;;;13.10;73.92
45793;BME280;31495;42.740;22.908;2023-05-22T00:32:05;92886.41;;;13.10;74.13
45793;BME280;31495;42.740;22.908;2023-05-22T00:33:04;92881.75;;;13.12;73.93
45793;BME280;31495;42.740;22.908;2023-05-22T00:34:03;92886.41;;;13.10;73.73
45793;BME280;31495;42.740;22.908;2023-05-22T00:35:03;92887.31;;;13.03;73.93
45793;BME280;31495;42.740;22.908;2023-05-22T00:36:02;92884.63;;;13.10;73.53
45793;BME280;31495;42.740;22.908;2023-05-22T00:37:01;92884.47;;;13.17;73.20
45793;BME280;31495;42.740;22.908;2023-05-22T00:38:01;92882.56;;;13.12;73.33
45793;BME280;31495;42.740;22.908;2023-05-22T00:39:01;92882.25;;;13.09;73.45
45793;BME280;31495;42.740;22.908;2023-05-22T00:40:00;92893.19;;;13.11;73.31
45793;BME280;31495;42.740;22.908;2023-05-22T00:41:00;92880.75;;;13.13;73.22
45793;BME280;31495;42.740;22.908;2023-05-22T00:41:59;92882.25;;;13.09;73.34
45793;BME280;31495;42.740;22.908;2023-05-22T00:42:59;92888.34;;;13.02;73.55
45793;BME280;31495;42.740;22.908;2023-05-22T00:43:59;92886.78;;;13.01;73.74
45793;BME280;31495;42.740;22.908;2023-05-22T00:44:58;92883.72;;;13.04;73.85
45793;BME280;31495;42.740;22.908;2023-05-22T00:45:57;92883.63;;;12.99;73.96
45793;BME280;31495;42.740;22.908;2023-05-22T00:46:57;92887.44;;;12.97;73.96
45793;BME280;31495;42.740;22.908;2023-05-22T00:47:56;92881.72;;;12.95;74.37
45793;BME280;31495;42.740;22.908;2023-05-22T00:48:55;92883.44;;;12.89;74.51
45793;BME280;31495;42.740;22.908;2023-05-22T00:49:54;92882.28;;;12.85;74.71
45793;BME280;31495;42.740;22.908;2023-05-22T00:50:54;92881.28;;;12.86;74.76
45793;BME280;31495;42.740;22.908;2023-05-22T00:51:55;92881.84;;;12.88;74.65
45793;BME280;31495;42.740;22.908;2023-05-22T00:52:54;92882.63;;;12.88;74.66
45793;BME280;31495;42.740;22.908;2023-05-22T00:53:53;92884.53;;;12.93;74.50
45793;BME280;31495;42.740;22.908;2023-05-22T00:54:53;92880.59;;;12.91;74.58
45793;BME280;31495;42.740;22.908;2023-05-22T00:55:52;92882.63;;;12.88;74.56
45793;BME280;31495;42.740;22.908;2023-05-22T00:56:52;92882.97;;;12.92;74.58
45793;BME280;31495;42.740;22.908;2023-05-22T00:57:51;92884.53;;;12.93;74.45
45793;BME280;31495;42.740;22.908;2023-05-22T00:58:50;92882.50;;;12.95;74.14
45793;BME280;31495;42.740;22.908;2023-05-22T00:59:50;92874.69;;;12.95;74.18
45793;BME280;31495;42.740;22.908;2023-05-22T01:00:49;92879.78;;;12.90;74.32
45793;BME280;31495;42.740;22.908;2023-05-22T01:01:48;92880.84;;;12.89;74.23
45793;BME280;31495;42.740;22.908;2023-05-22T01:02:47;92878.13;;;12.84;74.32
45793;BME280;31495;42.740;22.908;2023-05-22T01:03:46;92875.31;;;12.85;74.50
45793;BME280;31495;42.740;22.908;2023-05-22T01:04:46;92877.34;;;12.83;74.40
45793;BME280;31495;42.740;22.908;2023-05-22T01:05:48;92878.59;;;12.81;74.50
45793;BME280;31495;42.740;22.908;2023-05-22T01:06:48;92867.97;;;12.82;74.43
45793;BME280;31495;42.740;22.908;2023-05-22T01:07:47;92867.75;;;12.84;74.42
45793;BME280;31495;42.740;22.908;2023-05-22T01:08:47;92865.16;;;12.84;74.15
45793;BME280;31495;42.740;22.908;2023-05-22T01:09:46;92870.91;;;12.86;74.21
45793;BME280;31495;42.740;22.908;2023-05-22T01:10:45;92861.53;;;12.85;74.13
45793;BME280;31495;42.740;22.908;2023-05-22T01:18:10;92860.97;;;12.83;74.19
45793;BME280;31495;42.740;22.908;2023-05-22T01:19:25;92858.94;;;12.85;74.20
45793;BME280;31495;42.740;22.908;2023-05-22T01:20:31;92857.81;;;12.81;74.07
45793;BME280;31495;42.740;22.908;2023-05-22T01:21:41;92857.25;;;12.79;74.12
45793;BME280;31495;42.740;22.908;2023-05-22T01:27:21;92859.28;;;12.77;74.49
45793;BME280;31495;42.740;22.908;2023-05-22T01:32:02;92854.19;;;12.82;73.94
45793;BME280;31495;42.740;22.908;2023-05-22T01:33:03;92856.66;;;12.88;74.15
45793;BME280;31495;42.740;22.908;2023-05-22T01:34:05;92860.28;;;12.87;74.01
45793;BME280;31495;42.740;22.908;2023-05-22T01:35:05;92863.44;;;12.90;74.09
45793;BME280;31495;42.740;22.908;2023-05-22T01:36:06;92848.31;;;12.86;74.20
45793;BME280;31495;42.740;22.908;2023-05-22T01:37:06;92853.00;;;12.73;74.79
45793;BME280;31495;42.740;22.908;2023-05-22T01:38:06;92857.97;;;12.74;74.70
45793;BME280;31495;42.740;22.908;2023-05-22T01:39:06;92856.56;;;12.83;74.52
45793;BME280;31495;42.740;22.908;2023-05-22T01:40:07;92852.50;;;12.87;74.49
45793;BME280;31495;42.740;22.908;2023-05-22T01:41:08;92852.81;;;12.91;74.53
45793;BME280;31495;42.740;22.908;2023-05-22T01:42:07;92852.28;;;12.89;74.52
45793;BME280;31495;42.740;22.908;2023-05-22T01:43:07;92844.25;;;12.91;74.60
45793;BME280;31495;42.740;22.908;2023-05-22T01:44:06;92852.28;;;12.89;74.82
45793;BME280;31495;42.740;22.908;2023-05-22T01:45:07;92839.75;;;12.86;74.51
45793;BME280;31495;42.740;22.908;2023-05-22T01:46:06;92842.13;;;12.87;74.89
45793;BME280;31495;42.740;22.908;2023-05-22T01:47:06;92846.84;;;12.91;74.78
45793;BME280;31495;42.740;22.908;2023-05-22T01:48:06;92846.28;;;12.88;74.93
45793;BME280;31495;42.740;22.908;2023-05-22T01:49:05;92845.72;;;12.86;74.93
45793;BME280;31495;42.740;22.908;2023-05-22T01:50:07;92838.97;;;12.85;75.01
45793;BME280;31495;42.740;22.908;2023-05-22T01:53:30;92840.66;;;12.80;75.33
45793;BME280;31495;42.740;22.908;2023-05-22T01:54:35;92845.31;;;12.78;75.59
45793;BME280;31495;42.740;22.908;2023-05-22T01:56:40;92840.22;;;12.83;75.07
45793;BME280;31495;42.740;22.908;2023-05-22T01:57:45;92845.06;;;12.79;75.35
45793;BME280;31495;42.740;22.908;2023-05-22T01:58:49;92847.34;;;12.76;75.53
45793;BME280;31495;42.740;22.908;2023-05-22T02:00:12;92839.66;;;12.81;75.60
45793;BME280;31495;42.740;22.908;2023-05-22T02:01:12;92845.75;;;12.75;75.33
45793;BME280;31495;42.740;22.908;2023-05-22T02:02:12;92848.91;;;12.77;75.39
45793;BME280;31495;42.740;22.908;2023-05-22T02:03:17;92846.41;;;12.82;75.29
45793;BME280;31495;42.740;22.908;2023-05-22T02:04:20;92847.66;;;12.79;75.38
45793;BME280;31495;42.740;22.908;2023-05-22T02:05:20;92847.22;;;12.82;75.22
45793;BME280;31495;42.740;22.908;2023-05-22T02:06:21;92848.69;;;12.78;75.39
45793;BME280;31495;42.740;22.908;2023-05-22T02:07:22;92847.34;;;12.76;75.59
45793;BME280;31495;42.740;22.908;2023-05-22T02:08:23;92849.47;;;12.79;75.28
45793;BME280;31495;42.740;22.908;2023-05-22T02:09:24;92849.47;;;12.79;75.21
45793;BME280;31495;42.740;22.908;2023-05-22T02:10:25;92851.72;;;12.75;75.35
45793;BME280;31495;42.740;22.908;2023-05-22T02:11:26;92854.31;;;12.75;75.25
45793;BME280;31495;42.740;22.908;2023-05-22T02:12:27;92862.00;;;12.70;75.62
45793;BME280;31495;42.740;22.908;2023-05-22T02:13:26;92855.13;;;12.64;75.87
45793;BME280;31495;42.740;22.908;2023-05-22T02:14:26;92857.97;;;12.62;75.94
45793;BME280;31495;42.740;22.908;2023-05-22T02:15:26;92858.44;;;12.59;76.09
45793;BME280;31495;42.740;22.908;2023-05-22T02:16:25;92861.03;;;12.59;75.95
45793;BME280;31495;42.740;22.908;2023-05-22T02:17:26;92863.97;;;12.51;76.02
45793;BME280;31495;42.740;22.908;2023-05-22T02:18:26;92865.00;;;12.50;76.24
45793;BME280;31495;42.740;22.908;2023-05-22T02:19:27;92862.16;;;12.52;76.19
45793;BME280;31495;42.740;22.908;2023-05-22T02:20:26;92870.97;;;12.50;76.17
45793;BME280;31495;42.740;22.908;2023-05-22T02:21:26;92863.41;;;12.49;76.24
45793;BME280;31495;42.740;22.908;2023-05-22T02:22:25;92860.69;;;12.44;76.07
45793;BME280;31495;42.740;22.908;2023-05-22T02:23:27;92862.41;;;12.38;76.13
45793;BME280;31495;42.740;22.908;2023-05-22T02:24:30;92859.72;;;12.33;76.51
45793;BME280;31495;42.740;22.908;2023-05-22T02:25:30;92854.53;;;12.33;76.55
45793;BME280;31495;42.740;22.908;2023-05-22T02:26:29;92863.31;;;12.32;76.85
45793;BME280;31495;42.740;22.908;2023-05-22T02:27:28;92855.75;;;12.30;76.84
45793;BME280;31495;42.740;22.908;2023-05-22T02:28:28;92865.25;;;12.25;76.95
45793;BME280;31495;42.740;22.908;2023-05-22T02:29:27;92864.09;;;12.21;77.14
45793;BME280;31495;42.740;22.908;2023-05-22T02:30:27;92859.59;;;12.16;77.24
45793;BME280;31495;42.740;22.908;2023-05-22T02:31:26;92864.78;;;12.16;77.39
45793;BME280;31495;42.740;22.908;2023-05-22T02:32:25;92860.94;;;12.19;77.35
45793;BME280;31495;42.740;22.908;2023-05-22T02:33:26;92866.25;;;12.24;77.12
45793;BME280;31495;42.740;22.908;2023-05-22T02:34:28;92866.25;;;12.24;77.26
45793;BME280;31495;42.740;22.908;2023-05-22T02:35:27;92865.81;;;12.27;77.22
45793;BME280;31495;42.740;22.908;2023-05-22T02:36:27;92870.31;;;12.31;76.96
45793;BME280;31495;42.740;22.908;2023-05-22T02:37:29;92864.66;;;12.35;76.94
45793;BME280;31495;42.740;22.908;2023-05-22T02:38:28;92865.34;;;12.30;76.85
45793;BME280;31495;42.740;22.908;2023-05-22T02:39:27;92861.94;;;12.29;77.09
45793;BME280;31495;42.740;22.908;2023-05-22T02:40:26;92865.69;;;12.34;76.74
45793;BME280;31495;42.740;22.908;2023-05-22T02:41:26;92860.38;;;12.28;76.60
45793;BME280;31495;42.740;22.908;2023-05-22T02:42:25;92863.44;;;12.25;76.85
45793;BME280;31495;42.740;22.908;2023-05-22T02:43:24;92860.59;;;12.27;76.67
45793;BME280;31495;42.740;22.908;2023-05-22T02:44:24;92859.69;;;12.21;76.64
45793;BME280;31495;42.740;22.908;2023-05-22T02:45:23;92860.84;;;12.13;76.93
45793;BME280;31495;42.740;22.908;2023-05-22T02:46:22;92861.97;;;12.06;77.22
45793;BME280;31495;42.740;22.908;2023-05-22T02:47:22;92865.34;;;12.06;77.15
45793;BME280;31495;42.740;22.908;2023-05-22T02:48:21;92865.88;;;12.08;76.99
45793;BME280;31495;42.740;22.908;2023-05-22T02:49:20;92864.00;;;12.04;76.63
45793;BME280;31495;42.740;22.908;2023-05-22T02:50:20;92864.88;;;11.98;76.64
45793;BME280;31495;42.740;22.908;2023-05-22T02:51:19;92861.75;;;11.95;76.55
45793;BME280;31495;42.740;22.908;2023-05-22T02:52:18;92864.63;;;11.87;76.57
45793;BME280;31495;42.740;22.908;2023-05-22T02:53:18;92858.06;;;11.85;76.92
45793;BME280;31495;42.740;22.908;2023-05-22T02:54:17;92858.19;;;11.90;76.66
45793;BME280;31495;42.740;22.908;2023-05-22T02:55:16;92863.59;;;11.88;76.83
45793;BME280;31495;42.740;22.908;2023-05-22T02:56:16;92867.88;;;11.83;76.99
45793;BME280;31495;42.740;22.908;2023-05-22T02:57:17;92868.44;;;11.85;77.10
45793;BME280;31495;42.740;22.908;2023-05-22T02:58:16;92859.44;;;11.87;77.01
45793;BME280;31495;42.740;22.908;2023-05-22T02:59:15;92852.22;;;11.89;76.68
45793;BME280;31495;42.740;22.908;2023-05-22T03:00:15;92858.84;;;11.85;76.70
45793;BME280;31495;42.740;22.908;2023-05-22T03:01:15;92856.50;;;11.84;76.72
45793;BME280;31495;42.740;22.908;2023-05-22T03:02:14;92865.28;;;11.83;76.83
45793;BME280;31495;42.740;22.908;2023-05-22T03:03:15;92857.75;;;11.81;76.98
45793;BME280;31495;42.740;22.908;2023-05-22T03:04:15;92853.56;;;11.80;77.15
45793;BME280;31495;42.740;22.908;2023-05-22T03:05:15;92850.63;;;11.76;77.32
45793;BME280;31495;42.740;22.908;2023-05-22T03:06:15;92853.78;;;11.78;77.48
45793;BME280;31495;42.740;22.908;2023-05-22T03:07:14;92857.41;;;11.77;77.48
45793;BME280;31495;42.740;22.908;2023-05-22T03:08:15;92857.19;;;11.79;77.55
45793;BME280;31495;42.740;22.908;2023-05-22T03:09:14;92853.56;;;11.80;77.60
45793;BME280;31495;42.740;22.908;2023-05-22T03:10:14;92856.97;;;11.81;77.47
45793;BME280;31495;42.740;22.908;2023-05-22T03:11:13;92855.72;;;11.83;77.80
45793;BME280;31495;42.740;22.908;2023-05-22T03:12:12;92859.66;;;11.86;77.50
45793;BME280;31495;42.740;22.908;2023-05-22T03:13:12;92857.63;;;11.88;77.39
45793;BME280;31495;42.740;22.908;2023-05-22T03:14:11;92855.72;;;11.83;77.52
45793;BME280;31495;42.740;22.908;2023-05-22T03:15:11;92855.59;;;11.90;77.14
45793;BME280;31495;42.740;22.908;2023-05-22T03:16:10;92852.81;;;11.91;77.10
45793;BME280;31495;42.740;22.908;2023-05-22T03:17:09;92857.41;;;11.89;77.07
45793;BME280;31495;42.740;22.908;2023-05-22T03:18:08;92857.84;;;11.86;77.28
45793;BME280;31495;42.740;22.908;2023-05-22T03:19:08;92861.81;;;11.89;77.11
45793;BME280;31495;42.740;22.908;2023-05-22T03:20:08;92860.78;;;11.90;77.14
45793;BME280;31495;42.740;22.908;2023-05-22T03:21:08;92863.03;;;11.86;77.26
45793;BME280;31495;42.740;22.908;2023-05-22T03:22:07;92861.81;;;11.89;77.27
45793;BME280;31495;42.740;22.908;2023-05-22T03:23:07;92858.00;;;11.91;77.40
45793;BME280;31495;42.740;22.908;2023-05-22T03:24:06;92861.81;;;11.89;77.34
45793;BME280;31495;42.740;22.908;2023-05-22T03:25:06;92863.19;;;11.91;77.49
45793;BME280;31495;42.740;22.908;2023-05-22T03:26:07;92853.97;;;11.95;77.60
45793;BME280;31495;42.740;22.908;2023-05-22T03:27:06;92856.41;;;11.90;77.90
45793;BME280;31495;42.740;22.908;2023-05-22T03:28:05;92852.91;;;11.85;78.49
45793;BME280;31495;42.740;22.908;2023-05-22T03:29:05;92862.69;;;11.83;78.85
45793;BME280;31495;42.740;22.908;2023-05-22T03:30:04;92858.84;;;11.85;78.87
45793;BME280;31495;42.740;22.908;2023-05-22T03:31:04;92859.66;;;11.86;79.12
45793;BME280;31495;42.740;22.908;2023-05-22T03:32:03;92853.69;;;11.85;79.09
45793;BME280;31495;42.740;22.908;2023-05-22T03:33:02;92856.25;;;11.85;79.48
45793;BME280;31495;42.740;22.908;2023-05-22T03:34:02;92855.41;;;11.91;79.13
45793;BME280;31495;42.740;22.908;2023-05-22T03:35:04;92853.16;;;11.95;79.13
45793;BME280;31495;42.740;22.908;2023-05-22T03:36:03;92859.25;;;12.01;78.92
45793;BME280;31495;42.740;22.908;2023-05-22T03:37:03;92854.53;;;11.98;79.04
45793;BME280;31495;42.740;22.908;2023-05-22T03:38:02;92859.69;;;11.98;79.13
45793;BME280;31495;42.740;22.908;2023-05-22T03:39:02;92858.81;;;12.04;79.22
45793;BME280;31495;42.740;22.908;2023-05-22T03:40:02;92859.59;;;12.04;79.16
45793;BME280;31495;42.740;22.908;2023-05-22T03:41:03;92855.78;;;12.07;79.38
45793;BME280;31495;42.740;22.908;2023-05-22T03:42:02;92856.09;;;12.10;79.23
45793;BME280;31495;42.740;22.908;2023-05-22T03:43:01;92852.25;;;12.13;79.09
45793;BME280;31495;42.740;22.908;2023-05-22T03:44:01;92856.44;;;12.14;79.19
45793;BME280;31495;42.740;22.908;2023-05-22T03:45:00;92862.19;;;12.16;79.15
45793;BME280;31495;42.740;22.908;2023-05-22T03:46:00;92858.59;;;12.17;79.12
45793;BME280;31495;42.740;22.908;2023-05-22T03:46:59;92862.97;;;12.17;79.25
45793;BME280;31495;42.740;22.908;2023-05-22T03:47:59;92866.91;;;12.19;79.12
45793;BME280;31495;42.740;22.908;2023-05-22T03:48:58;92858.69;;;12.22;79.24
45793;BME280;31495;42.740;22.908;2023-05-22T03:49:57;92860.59;;;12.27;79.15
45793;BME280;31495;42.740;22.908;2023-05-22T03:50:57;92866.56;;;12.27;79.24
45793;BME280;31495;42.740;22.908;2023-05-22T03:51:56;92861.28;;;12.34;78.93
45793;BME280;31495;42.740;22.908;2023-05-22T03:52:56;92860.50;;;12.34;78.92
45793;BME280;31495;42.740;22.908;2023-05-22T03:53:55;92859.59;;;12.40;78.73
45793;BME280;31495;42.740;22.908;2023-05-22T03:54:54;92860.47;;;12.45;78.53
45793;BME280;31495;42.740;22.908;2023-05-22T03:55:54;92867.81;;;12.48;78.42
45793;BME280;31495;42.740;22.908;2023-05-22T03:56:56;92861.72;;;12.55;78.27
45793;BME280;31495;42.740;22.908;2023-05-22T03:57:55;92863.50;;;12.54;78.45
45793;BME280;31495;42.740;22.908;2023-05-22T03:58:54;92862.59;;;12.60;78.57
45793;BME280;31495;42.740;22.908;2023-05-22T03:59:54;92866.78;;;12.61;78.45
45793;BME280;31495;42.740;22.908;2023-05-22T04:00:53;92863.97;;;12.63;78.39
45793;BME280;31495;42.740;22.908;2023-05-22T04:01:53;92861.78;;;12.72;77.94
45793;BME280;31495;42.740;22.908;2023-05-22T04:02:52;92862.34;;;12.74;78.11
45793;BME280;31495;42.740;22.908;2023-05-22T04:03:52;92863.69;;;12.76;78.18
45793;BME280;31495;42.740;22.908;2023-05-22T04:04:52;92861.66;;;12.78;78.46
45793;BME280;31495;42.740;22.908;2023-05-22T04:05:51;92861.09;;;12.76;78.33
45793;BME280;31495;42.740;22.908;2023-05-22T04:06:51;92859.75;;;12.74;78.47
45793;BME280;31495;42.740;22.908;2023-05-22T04:07:51;92860.31;;;12.76;78.36
45793;BME280;31495;42.740;22.908;2023-05-22T04:08:50;92860.56;;;12.74;78.48
45793;BME280;31495;42.740;22.908;2023-05-22T04:09:49;92865.75;;;12.74;78.52
45793;BME280;31495;42.740;22.908;2023-05-22T04:10:49;92854.88;;;12.77;78.60
45793;BME280;31495;42.740;22.908;2023-05-22T04:11:48;92859.16;;;12.83;78.54
45793;BME280;31495;42.740;22.908;2023-05-22T04:12:50;92861.84;;;12.88;78.48
45793;BME280;31495;42.740;22.908;2023-05-22T04:13:49;92865.56;;;12.93;78.21
45793;BME280;31495;42.740;22.908;2023-05-22T04:14:49;92857.34;;;12.96;78.07
45793;BME280;31495;42.740;22.908;2023-05-22T04:15:48;92868.59;;;13.01;77.57
45793;BME280;31495;42.740;22.908;2023-05-22T04:16:48;92862.63;;;13.01;77.72
45793;BME280;31495;42.740;22.908;2023-05-22T04:17:48;92862.16;;;13.04;77.66
45793;BME280;31495;42.740;22.908;2023-05-22T04:18:47;92864.06;;;13.09;77.46
45793;BME280;31495;42.740;22.908;2023-05-22T04:19:47;92858.28;;;13.06;77.59
45793;BME280;31495;42.740;22.908;2023-05-22T04:20:46;92864.94;;;13.14;77.32
45793;BME280;31495;42.740;22.908;2023-05-22T04:21:46;92860.16;;;13.23;76.52
45793;BME280;31495;42.740;22.908;2023-05-22T04:22:45;92862.06;;;13.28;76.13
45793;BME280;31495;42.740;22.908;2023-05-22T04:23:46;92861.16;;;13.34;76.02
45793;BME280;31495;42.740;22.908;2023-05-22T04:24:47;92859.78;;;13.31;76.29
45793;BME280;31495;42.740;22.908;2023-05-22T04:25:46;92866.47;;;13.27;76.35
45793;BME280;31495;42.740;22.908;2023-05-22T04:26:46;92854.59;;;13.31;76.51
45793;BME280;31495;42.740;22.908;2023-05-22T04:27:46;92854.97;;;13.35;76.34
45793;BME280;31495;42.740;22.908;2023-05-22T04:28:46;92860.47;;;13.38;76.09
45793;BME280;31495;42.740;22.908;2023-05-22T04:29:45;92860.78;;;13.42;75.64
45793;BME280;31495;42.740;22.908;2023-05-22T04:30:44;92858.41;;;13.40;75.58
45793;BME280;31495;42.740;22.908;2023-05-22T04:31:44;92868.34;;;13.44;75.90
45793;BME280;31495;42.740;22.908;2023-05-22T04:32:43;92865.28;;;13.47;76.31
45793;BME280;31495;42.740;22.908;2023-05-22T04:33:42;92859.28;;;13.46;76.44
45793;BME280;31495;42.740;22.908;2023-05-22T04:34:46;92869.69;;;13.46;76.45
45793;BME280;31495;42.740;22.908;2023-05-22T04:35:45;92863.69;;;13.46;76.63
45793;BME280;31495;42.740;22.908;2023-05-22T04:36:46;92860.63;;;13.49;76.26
45793;BME280;31495;42.740;22.908;2023-05-22T04:37:46;92862.00;;;13.51;76.04
45793;BME280;31495;42.740;22.908;2023-05-22T04:38:45;92860.72;;;13.54;75.89
45793;BME280;31495;42.740;22.908;2023-05-22T04:39:45;92864.69;;;13.56;75.90
45793;BME280;31495;42.740;22.908;2023-05-22T04:40:44;92864.44;;;13.58;74.76
45793;BME280;31495;42.740;22.908;2023-05-22T04:41:44;92869.41;;;13.59;74.32
45793;BME280;31495;42.740;22.908;2023-05-22T04:42:43;92869.97;;;13.62;74.43
45793;BME280;31495;42.740;22.908;2023-05-22T04:43:43;92866.66;;;13.66;74.17
45793;BME280;31495;42.740;22.908;2023-05-22T04:44:43;92866.75;;;13.71;74.26
45793;BME280;31495;42.740;22.908;2023-05-22T04:45:42;92870.19;;;13.77;74.51
45793;BME280;31495;42.740;22.908;2023-05-22T04:46:41;92866.59;;;13.78;74.03
45793;BME280;31495;42.740;22.908;2023-05-22T04:47:41;92871.00;;;13.77;74.35
45793;BME280;31495;42.740;22.908;2023-05-22T04:48:41;92872.56;;;13.78;74.21
45793;BME280;31495;42.740;22.908;2023-05-22T04:49:40;92871.00;;;13.77;74.16
45793;BME280;31495;42.740;22.908;2023-05-22T04:50:43;92871.78;;;13.78;74.35
45793;BME280;31495;42.740;22.908;2023-05-22T04:51:44;92871.00;;;13.77;74.43
45793;BME280;31495;42.740;22.908;2023-05-22T04:52:44;92868.41;;;13.77;74.96
45793;BME280;31495;42.740;22.908;2023-05-22T04:53:43;92882.50;;;13.82;74.58
45793;BME280;31495;42.740;22.908;2023-05-22T04:54:44;92873.69;;;13.83;74.67
45793;BME280;31495;42.740;22.908;2023-05-22T04:55:44;92872.66;;;13.84;74.01
45793;BME280;31495;42.740;22.908;2023-05-22T04:56:44;92876.28;;;13.83;72.98
45793;BME280;31495;42.740;22.908;2023-05-22T04:57:43;92874.78;;;13.87;72.70
45793;BME280;31495;42.740;22.908;2023-05-22T04:58:43;92878.19;;;13.87;72.50
45793;BME280;31495;42.740;22.908;2023-05-22T04:59:42;92873.75;;;13.88;72.95
45793;BME280;31495;42.740;22.908;2023-05-22T05:00:42;92880.56;;;13.89;73.02
45793;BME280;31495;42.740;22.908;2023-05-22T05:01:41;92878.50;;;13.91;73.35
45793;BME280;31495;42.740;22.908;2023-05-22T05:02:44;92875.44;;;13.94;73.65
45793;BME280;31495;42.740;22.908;2023-05-22T05:03:43;92875.75;;;13.97;73.88
45793;BME280;31495;42.740;22.908;2023-05-22T05:04:43;92876.28;;;14.00;73.96
45793;BME280;31495;42.740;22.908;2023-05-22T05:05:42;92878.41;;;14.03;74.06
45793;BME280;31495;42.740;22.908;2023-05-22T05:06:43;92874.00;;;14.03;74.38
45793;BME280;31495;42.740;22.908;2023-05-22T05:07:42;92882.09;;;14.07;74.09
45793;BME280;31495;42.740;22.908;2023-05-22T05:08:41;92880.06;;;14.09;74.21
45793;BME280;31495;42.740;22.908;2023-05-22T05:09:42;92880.63;;;14.11;74.36
45793;BME280;31495;42.740;22.908;2023-05-22T05:10:41;92884.06;;;14.16;74.08
45793;BME280;31495;42.740;22.908;2023-05-22T05:11:41;92877.84;;;14.18;73.59
45793;BME280;31495;42.740;22.908;2023-05-22T05:12:40;92880.69;;;14.16;73.46
45793;BME280;31495;42.740;22.908;2023-05-22T05:13:39;92882.03;;;14.19;74.94
45793;BME280;31495;42.740;22.908;2023-05-22T05:14:39;92872.97;;;14.21;74.50
45793;BME280;31495;42.740;22.908;2023-05-22T05:15:39;92878.63;;;14.18;74.64
45793;BME280;31495;42.740;22.908;2023-05-22T05:16:38;92875.50;;;14.16;72.85
45793;BME280;31495;42.740;22.908;2023-05-22T05:17:37;92887.25;;;14.19;72.63
45793;BME280;31495;42.740;22.908;2023-05-22T05:18:37;92887.25;;;14.19;71.05
45793;BME280;31495;42.740;22.908;2023-05-22T05:19:36;92882.75;;;14.14;70.05
45793;BME280;31495;42.740;22.908;2023-05-22T05:20:36;92878.88;;;14.16;70.01
45793;BME280;31495;42.740;22.908;2023-05-22T05:21:35;92877.63;;;14.19;69.90
45793;BME280;31495;42.740;22.908;2023-05-22T05:22:35;92883.84;;;14.18;70.14
45793;BME280;31495;42.740;22.908;2023-05-22T05:23:35;92877.38;;;14.21;69.91
45793;BME280;31495;42.740;22.908;2023-05-22T05:24:34;92879.50;;;14.24;69.05
45793;BME280;31495;42.740;22.908;2023-05-22T05:25:34;92882.88;;;14.24;69.41
45793;BME280;31495;42.740;22.908;2023-05-22T05:26:36;92887.00;;;14.20;69.15
45793;BME280;31495;42.740;22.908;2023-05-22T05:27:35;92886.53;;;14.23;68.81
45793;BME280;31495;42.740;22.908;2023-05-22T05:28:35;92883.66;;;14.25;68.61
45793;BME280;31495;42.740;22.908;2023-05-22T05:29:35;92884.25;;;14.27;68.44
45793;BME280;31495;42.740;22.908;2023-05-22T05:30:38;92886.13;;;14.31;67.87
45793;BME280;31495;42.740;22.908;2023-05-22T05:31:37;92879.88;;;14.32;67.94